Time;durP1;ratioP1;P1;durP2;ratioP2;P2;SDS_P1;SDS_P2;PMS_P1;PMS_P2;Temp;Humidity;BMP_temperature;BMP_pressure;BME280_temperature;BME280_humidity;BME280_pressure;Samples;Min_cycle;Max_cycle;Signal;HPM_P1;HPM_P2
2023/08/10 00:28:39;;;;;;;5.20;1.48;;;;;;;;;;6191226;23;20082;-90
2023/08/10 00:35:48;;;;;;;4.20;1.45;;;;;;;;;;6199198;23;20103;-90
2023/08/10 01:33:38;;;;;;;;;;;;;;;;;;;;;
2023/08/10 01:37:00;;;;;;;;;;;;;;;;;;;;;
2023/08/10 01:39:45;;;;;;;3.25;1.25;;;;;;;;;;6153747;23;20081;-88
2023/08/10 01:48:43;;;;;;;2.88;1.05;;;;;;;;;;6154290;23;20013;-88
2023/08/10 01:51:31;;;;;;;3.30;1.48;;;;;;;;;;6127378;23;20009;-88
2023/08/10 01:57:02;;;;;;;5.57;1.65;;;;;;;;;;6153401;23;20036;-87
2023/08/10 02:00:18;;;;;;;;;;;;;;;;;;;;;
2023/08/10 02:22:01;;;;;;;4.20;1.27;;;;;;;;;;5992556;23;20787;-88
2023/08/10 02:24:32;;;;;;;3.50;1.33;;;;;;;;;;6006082;23;20098;-88
2023/08/10 02:30:30;;;;;;;3.90;1.45;;;;;;;;;;6019248;23;20007;-88
2023/08/10 02:39:51;;;;;;;3.38;1.38;;;;;;;;;;6033454;23;20063;-88
2023/08/10 02:58:04;;;;;;;4.25;1.63;;;;;;;;;;5931292;24;20108;-87
2023/08/10 03:00:41;;;;;;;5.20;1.65;;;;;;;;;;5949661;24;20017;-88
2023/08/10 03:03:10;;;;;;;3.50;1.73;;;;;;;;;;5962647;23;20726;-87
2023/08/10 03:05:59;;;;;;;5.03;1.35;;;;;;;;;;5981459;23;20012;-87
2023/08/10 03:08:53;;;;;;;6.45;1.58;;;;;;;;;;5919221;23;20527;-88
2023/08/10 03:11:22;;;;;;;6.50;1.48;;;;;;;;;;6150968;23;20010;-87
2023/08/10 03:13:50;;;;;;;3.30;1.10;;;;;;;;;;6126574;23;20422;-88
2023/08/10 03:16:30;;;;;;;3.78;1.30;;;;;;;;;;6127821;23;20009;-87
2023/08/10 03:19:06;;;;;;;3.38;1.52;;;;;;;;;;6127276;23;20014;-88
2023/08/10 03:22:08;;;;;;;6.13;1.63;;;;;;;;;;6126837;23;20056;-87
2023/08/10 03:25:07;;;;;;;4.43;1.63;;;;;;;;;;6126333;23;20045;-88
2023/08/10 03:33:41;;;;;;;6.22;1.50;;;;;;;;;;6155543;23;20333;-88
2023/08/10 03:36:41;;;;;;;2.80;1.35;;;;;;;;;;6119961;23;20113;-89
2023/08/10 03:39:40;;;;;;;5.25;1.35;;;;;;;;;;6120781;23;20113;-88
2023/08/10 03:51:12;;;;;;;3.60;1.42;;;;;;;;;;6184152;23;20013;-88
2023/08/10 03:54:09;;;;;;;;;;;;;;;;;;;;;
2023/08/10 04:00:04;;;;;;;4.38;1.70;;;;;;;;;;6184008;23;20108;-88
2023/08/10 04:02:57;;;;;;;4.78;1.38;;;;;;;;;;6158500;23;20104;-87
2023/08/10 04:05:55;;;;;;;4.10;1.50;;;;;;;;;;6121533;23;20024;-88
2023/08/10 04:15:02;;;;;;;3.65;1.45;;;;;;;;;;6122709;23;20029;-88
2023/08/10 04:20:44;;;;;;;6.95;1.75;;;;;;;;;;6122654;23;20118;-88
2023/08/10 04:23:41;;;;;;;6.40;1.85;;;;;;;;;;6095514;23;20484;-88
2023/08/10 04:26:22;;;;;;;4.85;2.17;;;;;;;;;;6073340;23;20034;-88
2023/08/10 04:28:54;;;;;;;3.15;1.52;;;;;;;;;;6097804;23;20018;-87
2023/08/10 04:31:23;;;;;;;7.65;1.70;;;;;;;;;;6157539;23;20013;-88
2023/08/10 04:33:54;;;;;;;4.35;1.45;;;;;;;;;;6180919;23;20021;-88
2023/08/10 04:36:45;;;;;;;3.88;1.40;;;;;;;;;;6157044;23;20012;-88
2023/08/10 04:39:17;;;;;;;4.63;1.70;;;;;;;;;;6140682;23;20009;-88
2023/08/10 04:41:59;;;;;;;5.45;1.70;;;;;;;;;;6155775;23;20037;-88
2023/08/10 04:44:25;;;;;;;11.52;1.95;;;;;;;;;;6157905;23;20020;-88
2023/08/10 04:47:00;;;;;;;4.18;1.58;;;;;;;;;;6156829;23;20017;-88
2023/08/10 04:50:02;;;;;;;5.65;1.80;;;;;;;;;;6158197;23;20099;-88
2023/08/10 04:52:28;;;;;;;3.55;1.52;;;;;;;;;;6157787;23;20017;-87
2023/08/10 04:55:04;;;;;;;3.17;1.20;;;;;;;;;;6157632;23;20012;-88
2023/08/10 04:57:31;;;;;;;4.45;1.70;;;;;;;;;;6157186;23;20063;-87
2023/08/10 05:03:00;;;;;;;8.48;2.45;;;;;;;;;;6101939;23;20017;-88
2023/08/10 05:05:59;;;;;;;;;;;;;;;;;;;;;
2023/08/10 05:08:31;;;;;;;9.35;1.92;;;;;;;;;;6183771;23;20088;-88
2023/08/10 05:11:17;;;;;;;3.65;1.60;;;;;;;;;;6157702;23;20665;-87
2023/08/10 05:14:00;;;;;;;6.78;2.22;;;;;;;;;;6157970;23;20017;-88
2023/08/10 05:16:36;;;;;;;10.20;1.42;;;;;;;;;;6157428;23;20096;-87
2023/08/10 05:19:03;;;;;;;6.43;1.80;;;;;;;;;;6158340;23;20009;-88
2023/08/10 05:22:04;;;;;;;5.22;1.90;;;;;;;;;;6158725;23;20013;-88
2023/08/10 05:24:43;;;;;;;5.40;1.50;;;;;;;;;;6156771;23;20017;-88
2023/08/10 05:27:38;;;;;;;3.28;1.48;;;;;;;;;;6157756;23;20050;-88
2023/08/10 05:30:37;;;;;;;7.82;2.45;;;;;;;;;;6151538;23;20013;-87
2023/08/10 05:36:18;;;;;;;10.65;2.42;;;;;;;;;;6092958;23;20077;-87
2023/08/10 05:38:47;;;;;;;13.43;3.85;;;;;;;;;;6128586;23;20100;-87
2023/08/10 05:41:13;;;;;;;6.90;2.40;;;;;;;;;;6158624;23;20372;-87
2023/08/10 05:43:44;;;;;;;5.30;1.92;;;;;;;;;;6157105;23;20056;-87
2023/08/10 05:46:12;;;;;;;6.13;2.30;;;;;;;;;;6156414;23;20104;-87
2023/08/10 05:48:49;;;;;;;7.38;1.90;;;;;;;;;;6156689;23;20021;-87
2023/08/10 05:51:15;;;;;;;6.45;2.08;;;;;;;;;;6157581;23;20048;-88
2023/08/10 05:53:47;;;;;;;3.83;1.77;;;;;;;;;;6156782;23;20025;-87
2023/08/10 05:56:13;;;;;;;4.68;1.42;;;;;;;;;;6157925;23;20059;-87
2023/08/10 05:58:39;;;;;;;4.78;1.75;;;;;;;;;;6157066;23;20091;-89
2023/08/10 06:01:05;;;;;;;15.10;1.65;;;;;;;;;;6159786;23;20009;-89
2023/08/10 06:03:32;;;;;;;4.72;1.77;;;;;;;;;;6157887;23;20017;-88
2023/08/10 06:06:01;;;;;;;4.53;1.70;;;;;;;;;;6158449;23;20063;-89
2023/08/10 06:08:35;;;;;;;7.50;2.33;;;;;;;;;;6157632;23;20013;-89
2023/08/10 06:11:05;;;;;;;5.80;1.77;;;;;;;;;;6158620;23;20088;-88
2023/08/10 06:13:38;;;;;;;4.03;1.70;;;;;;;;;;6183059;23;20594;-88
2023/08/10 06:16:07;;;;;;;4.88;1.77;;;;;;;;;;6183019;23;20009;-87
2023/08/10 06:18:40;;;;;;;4.75;1.85;;;;;;;;;;6182147;23;20016;-90
2023/08/10 06:21:10;;;;;;;3.50;1.42;;;;;;;;;;6182779;23;20013;-90
2023/08/10 06:23:36;;;;;;;4.95;1.92;;;;;;;;;;6182466;23;20013;-87
2023/08/10 06:26:05;;;;;;;4.97;1.85;;;;;;;;;;6182245;23;20097;-89
2023/08/10 06:28:34;;;;;;;4.05;1.48;;;;;;;;;;6183790;23;20130;-89
2023/08/10 06:31:00;;;;;;;4.03;1.77;;;;;;;;;;6184563;23;20097;-91
2023/08/10 06:33:29;;;;;;;2.65;1.40;;;;;;;;;;6184371;23;20013;-88
2023/08/10 06:35:55;;;;;;;4.07;1.27;;;;;;;;;;6184734;23;20055;-91
2023/08/10 06:38:21;;;;;;;4.20;1.50;;;;;;;;;;6184603;23;20306;-91
2023/08/10 06:40:47;;;;;;;3.10;1.30;;;;;;;;;;6183823;23;20436;-91
2023/08/10 06:43:13;;;;;;;5.88;1.60;;;;;;;;;;6184056;23;20036;-88
2023/08/10 06:45:45;;;;;;;11.23;1.60;;;;;;;;;;6183969;23;20019;-88
2023/08/10 06:48:12;;;;;;;5.03;1.70;;;;;;;;;;6183246;23;20028;-88
2023/08/10 06:50:40;;;;;;;5.55;1.60;;;;;;;;;;6183881;23;20013;-87
2023/08/10 06:53:07;;;;;;;4.10;1.42;;;;;;;;;;6183283;23;20017;-88
2023/08/10 06:55:38;;;;;;;5.40;1.63;;;;;;;;;;6183195;23;20036;-88
2023/08/10 07:01:21;;;;;;;6.35;1.88;;;;;;;;;;6185577;23;20017;-89
2023/08/10 07:07:05;;;;;;;3.97;1.80;;;;;;;;;;6154149;23;20012;-89
2023/08/10 07:09:31;;;;;;;4.47;1.50;;;;;;;;;;6127741;23;20436;-89
2023/08/10 07:12:38;;;;;;;4.28;1.77;;;;;;;;;;6128231;23;20018;-91
2023/08/10 07:15:07;;;;;;;5.07;1.70;;;;;;;;;;6129819;23;20461;-95
2023/08/10 07:36:06;;;;;;;3.35;1.30;;;;;;;;;;6185605;23;20016;-92
2023/08/10 07:38:41;;;;;;;4.60;1.77;;;;;;;;;;6151744;23;20016;-90
2023/08/10 07:41:07;;;;;;;7.40;2.20;;;;;;;;;;6124621;23;20449;-89
2023/08/10 07:43:38;;;;;;;8.02;1.65;;;;;;;;;;6125151;23;20480;-91
2023/08/10 07:46:04;;;;;;;6.45;1.92;;;;;;;;;;6127342;23;20018;-89
2023/08/10 07:48:46;;;;;;;6.05;1.65;;;;;;;;;;6152609;23;20011;-92
2023/08/10 08:03:18;;;;;;;5.78;1.60;;;;;;;;;;6169523;23;20021;-92
2023/08/10 08:11:39;;;;;;;6.65;1.40;;;;;;;;;;6155836;23;20042;-90
2023/08/10 08:14:14;;;;;;;3.83;1.60;;;;;;;;;;6096149;23;20018;-88
2023/08/10 08:16:57;;;;;;;3.53;1.45;;;;;;;;;;6095533;23;20010;-87
2023/08/10 08:19:36;;;;;;;5.28;1.73;;;;;;;;;;6096324;23;20069;-88
2023/08/10 08:22:29;;;;;;;5.18;1.73;;;;;;;;;;6096227;23;20033;-86
2023/08/10 08:24:57;;;;;;;4.28;1.58;;;;;;;;;;6097911;23;20017;-87
2023/08/10 08:27:35;;;;;;;4.97;1.70;;;;;;;;;;6096947;23;20065;-87
2023/08/10 08:30:04;;;;;;;4.45;1.70;;;;;;;;;;6097837;23;20017;-88
2023/08/10 08:32:44;;;;;;;5.43;1.83;;;;;;;;;;6097623;23;20049;-87
2023/08/10 08:35:13;;;;;;;5.18;1.67;;;;;;;;;;6097026;23;20014;-88
2023/08/10 08:37:45;;;;;;;6.57;1.67;;;;;;;;;;6097589;23;20033;-86
2023/08/10 08:40:23;;;;;;;5.72;1.20;;;;;;;;;;6096049;23;20509;-87
2023/08/10 08:43:06;;;;;;;7.43;1.90;;;;;;;;;;6097981;23;20453;-87
2023/08/10 08:45:32;;;;;;;3.67;1.40;;;;;;;;;;6097554;23;20332;-87
2023/08/10 08:47:59;;;;;;;6.15;1.83;;;;;;;;;;6098204;23;20014;-86
2023/08/10 08:50:28;;;;;;;6.38;1.70;;;;;;;;;;6098473;23;20096;-87
2023/08/10 08:53:01;;;;;;;4.07;1.33;;;;;;;;;;6123760;23;20014;-87
2023/08/10 08:55:27;;;;;;;3.28;1.48;;;;;;;;;;6098356;23;20037;-86
2023/08/10 08:58:14;;;;;;;4.53;1.70;;;;;;;;;;6097908;23;20017;-87
2023/08/10 09:00:52;;;;;;;5.80;1.80;;;;;;;;;;6097727;23;20021;-87
2023/08/10 09:03:20;;;;;;;3.30;1.23;;;;;;;;;;6097091;23;20022;-86
2023/08/10 09:05:57;;;;;;;5.03;1.52;;;;;;;;;;6097614;23;20096;-87
2023/08/10 09:08:33;;;;;;;4.93;1.73;;;;;;;;;;6097105;23;20014;-87
2023/08/10 09:11:12;;;;;;;6.50;1.77;;;;;;;;;;6097567;23;20038;-87
2023/08/10 09:14:08;;;;;;;;;;;;;;;;;;;;;
2023/08/10 09:16:47;;;;;;;4.07;1.63;;;;;;;;;;6152952;23;20496;-88
2023/08/10 09:19:40;;;;;;;7.07;2.17;;;;;;;;;;6090873;23;20041;-88
2023/08/10 09:22:45;;;;;;;4.20;2.00;;;;;;;;;;6044716;23;20018;-88
2023/08/10 09:25:23;;;;;;;;;;;;;;;;;;;;;
2023/08/10 09:28:12;;;;;;;3.70;1.40;;;;;;;;;;6090336;23;20632;-88
2023/08/10 09:31:07;;;;;;;3.85;1.58;;;;;;;;;;6065136;23;20030;-89
2023/08/10 09:33:39;;;;;;;4.05;1.48;;;;;;;;;;6065988;23;20014;-89
2023/08/10 09:36:31;;;;;;;;;;;;;;;;;;;;;
2023/08/10 09:39:03;;;;;;;6.90;1.50;;;;;;;;;;6089788;23;20401;-87
2023/08/10 09:41:36;;;;;;;;;;;;;;;;;;6066815;23;20011;-87
2023/08/10 09:44:07;;;;;;;6.03;1.75;;;;;;;;;;6126330;23;19912;-89
2023/08/10 09:46:39;;;;;;;;;;;;;;;;;;6126625;23;20016;-88
2023/08/10 09:49:40;;;;;;;4.63;1.75;;;;;;;;;;6126438;23;20375;-88
2023/08/10 09:52:09;;;;;;;4.70;1.43;;;;;;;;;;6125804;23;20026;-87
2023/08/10 09:54:37;;;;;;;8.10;1.85;;;;;;;;;;6126169;23;20013;-88
2023/08/10 09:57:16;;;;;;;3.95;1.50;;;;;;;;;;6125409;23;20017;-87
2023/08/10 09:59:42;;;;;;;3.97;1.92;;;;;;;;;;6126226;23;20088;-87
2023/08/10 10:02:18;;;;;;;5.35;1.38;;;;;;;;;;6153479;23;20020;-86
2023/08/10 10:04:54;;;;;;;3.75;1.95;;;;;;;;;;6126535;23;20005;-89
2023/08/10 10:07:28;;;;;;;4.60;1.40;;;;;;;;;;6127191;23;20021;-87
2023/08/10 10:09:57;;;;;;;5.03;1.92;;;;;;;;;;6126523;23;20006;-87
2023/08/10 10:12:24;;;;;;;5.00;1.33;;;;;;;;;;6132714;23;20021;-87
2023/08/10 10:15:00;;;;;;;5.10;1.40;;;;;;;;;;6151445;23;20112;-88
2023/08/10 10:17:26;;;;;;;4.50;1.92;;;;;;;;;;6151071;23;20013;-88
2023/08/10 10:19:53;;;;;;;5.30;1.55;;;;;;;;;;6151679;23;20002;-87
2023/08/10 10:22:21;;;;;;;7.45;1.70;;;;;;;;;;6150778;23;20037;-86
2023/08/10 10:24:51;;;;;;;3.10;1.30;;;;;;;;;;6150115;23;20009;-87
2023/08/10 10:27:17;;;;;;;4.97;1.30;;;;;;;;;;6150376;23;20014;-87
2023/08/10 10:29:49;;;;;;;5.53;1.33;;;;;;;;;;6150418;23;20472;-86
2023/08/10 10:32:22;;;;;;;5.05;1.52;;;;;;;;;;6150652;23;20560;-87
2023/08/10 10:34:55;;;;;;;2.78;1.17;;;;;;;;;;6150735;23;20026;-87
2023/08/10 10:37:29;;;;;;;3.58;1.33;;;;;;;;;;6150702;23;20005;-87
2023/08/10 10:40:13;;;;;;;5.68;1.75;;;;;;;;;;6151068;23;20508;-87
2023/08/10 10:43:01;;;;;;;5.80;1.55;;;;;;;;;;6149965;23;20005;-87
2023/08/10 10:45:28;;;;;;;5.60;1.50;;;;;;;;;;6175213;23;20021;-87
2023/08/10 10:47:55;;;;;;;5.22;1.40;;;;;;;;;;6150162;23;20006;-87
2023/08/10 10:50:22;;;;;;;4.88;1.45;;;;;;;;;;6150844;23;20013;-88
2023/08/10 10:53:03;;;;;;;3.63;1.38;;;;;;;;;;6149805;23;20377;-87
2023/08/10 10:55:35;;;;;;;3.33;1.60;;;;;;;;;;6150496;23;20112;-88
2023/08/10 10:58:05;;;;;;;6.80;1.70;;;;;;;;;;6150543;23;20044;-87
2023/08/10 11:00:36;;;;;;;2.65;1.15;;;;;;;;;;6150617;23;20017;-87
2023/08/10 11:03:06;;;;;;;2.63;1.13;;;;;;;;;;6149737;23;20075;-87
2023/08/10 11:05:32;;;;;;;3.42;1.20;;;;;;;;;;6150282;23;20063;-87
2023/08/10 11:08:03;;;;;;;4.25;1.25;;;;;;;;;;6149710;23;20017;-87
2023/08/10 11:10:31;;;;;;;5.03;1.20;;;;;;;;;;6150309;23;20013;-88
2023/08/10 11:13:01;;;;;;;3.60;1.50;;;;;;;;;;6149584;23;20021;-88
2023/08/10 11:15:28;;;;;;;4.00;1.08;;;;;;;;;;6150351;23;20337;-87
2023/08/10 11:17:54;;;;;;;3.08;1.42;;;;;;;;;;6150021;23;20032;-86
2023/08/10 11:20:21;;;;;;;6.75;1.67;;;;;;;;;;6150116;23;20081;-87
2023/08/10 11:22:54;;;;;;;4.90;1.17;;;;;;;;;;6149567;23;20070;-87
2023/08/10 11:25:29;;;;;;;3.45;1.40;;;;;;;;;;6150096;23;20085;-86
2023/08/10 11:27:56;;;;;;;4.75;1.15;;;;;;;;;;6148396;23;20037;-88
2023/08/10 11:30:25;;;;;;;7.72;1.52;;;;;;;;;;6150342;23;20017;-86
2023/08/10 11:32:52;;;;;;;4.20;1.38;;;;;;;;;;6149538;23;20018;-88
2023/08/10 11:35:23;;;;;;;4.53;1.35;;;;;;;;;;6149948;23;20013;-87
2023/08/10 11:37:49;;;;;;;4.30;1.90;;;;;;;;;;6149577;23;20426;-87
2023/08/10 11:40:26;;;;;;;3.22;1.25;;;;;;;;;;6149860;23;20084;-87
2023/08/10 11:43:21;;;;;;;7.20;1.77;;;;;;;;;;6149339;23;20017;-88
2023/08/10 11:45:52;;;;;;;3.47;1.08;;;;;;;;;;6138884;23;20017;-87
2023/08/10 11:48:19;;;;;;;;;;;;;;;;;;6150664;23;20068;-88
2023/08/10 11:50:45;;;;;;;5.20;1.33;;;;;;;;;;6151889;23;20768;-88
2023/08/10 11:53:16;;;;;;;3.38;1.23;;;;;;;;;;6150212;23;20021;-87
2023/08/10 11:55:48;;;;;;;4.53;1.52;;;;;;;;;;6151776;23;20647;-87
2023/08/10 11:58:40;;;;;;;2.97;1.35;;;;;;;;;;6151676;23;20013;-88
2023/08/10 12:01:07;;;;;;;7.05;1.67;;;;;;;;;;6151812;23;20737;-87
2023/08/10 12:03:59;;;;;;;6.25;1.70;;;;;;;;;;6152284;23;20572;-87
2023/08/10 12:06:26;;;;;;;5.90;1.52;;;;;;;;;;6149301;23;20022;-88
2023/08/10 12:09:11;;;;;;;3.72;1.48;;;;;;;;;;6153103;23;20020;-89
2023/08/10 12:11:41;;;;;;;3.03;1.30;;;;;;;;;;6156459;23;20008;-86
2023/08/10 12:14:08;;;;;;;4.15;1.60;;;;;;;;;;6128481;23;20037;-89
2023/08/10 12:16:34;;;;;;;3.28;1.40;;;;;;;;;;6130202;23;20080;-88
2023/08/10 12:19:00;;;;;;;5.07;1.50;;;;;;;;;;6126888;23;20023;-87
2023/08/10 12:21:26;;;;;;;6.20;1.80;;;;;;;;;;6129635;23;20398;-89
2023/08/10 12:23:52;;;;;;;4.13;1.05;;;;;;;;;;6130831;23;20013;-90
2023/08/10 12:26:18;;;;;;;7.45;1.40;;;;;;;;;;6129155;23;20017;-87
2023/08/10 12:28:45;;;;;;;5.60;1.33;;;;;;;;;;6129767;23;20021;-88
2023/08/10 12:31:13;;;;;;;4.53;1.60;;;;;;;;;;6130785;23;20010;-88
2023/08/10 12:33:42;;;;;;;5.57;1.50;;;;;;;;;;6129147;23;20104;-90
2023/08/10 12:36:08;;;;;;;3.38;1.20;;;;;;;;;;6127634;23;20330;-89
2023/08/10 12:38:54;;;;;;;5.85;1.58;;;;;;;;;;6128319;23;20121;-88
2023/08/10 12:44:21;;;;;;;6.43;1.23;;;;;;;;;;6153616;23;20021;-88
2023/08/10 12:46:47;;;;;;;4.72;1.42;;;;;;;;;;6127121;23;20237;-89
2023/08/10 12:49:18;;;;;;;3.20;1.48;;;;;;;;;;6127341;23;20017;-90
2023/08/10 12:51:52;;;;;;;7.88;1.90;;;;;;;;;;6128034;23;20024;-89
2023/08/10 12:54:36;;;;;;;4.15;1.38;;;;;;;;;;6131371;23;20319;-87
2023/08/10 12:57:02;;;;;;;4.30;1.70;;;;;;;;;;6180787;23;20049;-89
2023/08/10 12:59:28;;;;;;;5.90;1.65;;;;;;;;;;6182377;23;20021;-89
2023/08/10 13:01:54;;;;;;;3.47;1.20;;;;;;;;;;6183807;23;20366;-89
2023/08/10 13:04:20;;;;;;;4.65;1.52;;;;;;;;;;6186051;23;20012;-88
2023/08/10 13:06:46;;;;;;;4.88;1.67;;;;;;;;;;6183379;23;20329;-89
2023/08/10 13:09:13;;;;;;;5.75;1.38;;;;;;;;;;6184120;23;20009;-88
2023/08/10 13:11:39;;;;;;;5.20;1.25;;;;;;;;;;6180472;23;20013;-88
2023/08/10 13:14:05;;;;;;;5.38;1.30;;;;;;;;;;6183264;23;20013;-84
2023/08/10 13:16:31;;;;;;;3.40;1.33;;;;;;;;;;6183299;23;20005;-85
2023/08/10 13:18:57;;;;;;;2.80;1.27;;;;;;;;;;6182216;23;20004;-84
2023/08/10 13:21:24;;;;;;;4.18;1.40;;;;;;;;;;6182355;23;20085;-87
2023/08/10 13:23:50;;;;;;;4.60;1.40;;;;;;;;;;6182787;23;20035;-86
2023/08/10 13:26:18;;;;;;;3.53;1.25;;;;;;;;;;6182207;23;20019;-89
2023/08/10 13:28:53;;;;;;;4.05;1.55;;;;;;;;;;6186432;23;20036;-89
2023/08/10 13:31:37;;;;;;;;;;;;;;;;;;;;;
2023/08/10 13:34:11;;;;;;;5.20;1.50;;;;;;;;;;6150406;23;20727;-89
2023/08/10 13:36:40;;;;;;;5.32;1.60;;;;;;;;;;6128556;23;20385;-85
2023/08/10 13:39:07;;;;;;;3.22;1.10;;;;;;;;;;6124452;23;20010;-88
2023/08/10 13:41:33;;;;;;;2.50;1.30;;;;;;;;;;6124479;23;20321;-87
2023/08/10 13:43:59;;;;;;;3.92;1.50;;;;;;;;;;6126706;23;20014;-88
2023/08/10 13:46:25;;;;;;;3.60;1.50;;;;;;;;;;6125064;23;20100;-87
2023/08/10 13:49:02;;;;;;;3.53;1.50;;;;;;;;;;6124288;23;20216;-87
2023/08/10 13:51:32;;;;;;;6.13;1.40;;;;;;;;;;6123997;23;20025;-87
2023/08/10 13:53:58;;;;;;;3.63;1.50;;;;;;;;;;6124154;23;20037;-88
2023/08/10 13:56:42;;;;;;;3.78;1.30;;;;;;;;;;6162095;23;20076;-86
2023/08/10 13:59:08;;;;;;;3.65;1.27;;;;;;;;;;6155186;23;20417;-85
2023/08/10 14:04:11;;;;;;;6.25;1.63;;;;;;;;;;6152301;23;20033;-89
2023/08/10 14:10:01;;;;;;;4.20;1.27;;;;;;;;;;6004437;23;20035;-89
2023/08/10 14:12:27;;;;;;;3.53;1.20;;;;;;;;;;6143234;23;20013;-90
2023/08/10 14:14:53;;;;;;;3.28;1.17;;;;;;;;;;6125942;23;20337;-89
2023/08/10 14:17:19;;;;;;;4.95;1.52;;;;;;;;;;6126147;23;20303;-87
2023/08/10 14:19:46;;;;;;;4.93;1.70;;;;;;;;;;6125232;23;20085;-86
2023/08/10 14:22:12;;;;;;;2.90;1.40;;;;;;;;;;6151123;23;20010;-86
2023/08/10 14:24:38;;;;;;;6.55;1.48;;;;;;;;;;6125344;23;20489;-86
2023/08/10 14:27:05;;;;;;;4.57;1.52;;;;;;;;;;6124708;23;20013;-87
2023/08/10 14:29:34;;;;;;;6.28;1.63;;;;;;;;;;6124215;23;20607;-88
2023/08/10 14:32:26;;;;;;;3.53;1.30;;;;;;;;;;6125495;23;20006;-87
2023/08/10 14:34:52;;;;;;;3.88;1.50;;;;;;;;;;6119452;23;20025;-87
2023/08/10 14:37:19;;;;;;;3.50;1.48;;;;;;;;;;6125629;23;20016;-88
2023/08/10 14:39:45;;;;;;;3.90;1.40;;;;;;;;;;6125389;23;20060;-86
2023/08/10 14:42:13;;;;;;;8.02;1.70;;;;;;;;;;6126090;23;20092;-87
2023/08/10 14:44:45;;;;;;;3.63;1.40;;;;;;;;;;6127207;23;20009;-87
2023/08/10 14:47:11;;;;;;;3.67;1.42;;;;;;;;;;6126918;23;20048;-87
2023/08/10 14:49:39;;;;;;;3.22;1.30;;;;;;;;;;6125814;23;20013;-88
2023/08/10 14:52:05;;;;;;;7.50;1.40;;;;;;;;;;6125848;23;20013;-89
2023/08/10 14:54:31;;;;;;;5.28;1.63;;;;;;;;;;6125669;23;20118;-86
2023/08/10 14:56:57;;;;;;;7.22;1.65;;;;;;;;;;6125250;23;20010;-86
2023/08/10 14:59:25;;;;;;;4.75;1.52;;;;;;;;;;6125703;23;20044;-87
2023/08/10 15:01:51;;;;;;;4.80;1.45;;;;;;;;;;6125028;23;20059;-86
2023/08/10 15:04:17;;;;;;;2.88;1.13;;;;;;;;;;6126124;23;20017;-85
2023/08/10 15:06:43;;;;;;;3.00;1.25;;;;;;;;;;6126080;23;20119;-87
2023/08/10 15:09:12;;;;;;;3.15;1.10;;;;;;;;;;6125621;23;20750;-85
2023/08/10 15:11:38;;;;;;;3.35;1.20;;;;;;;;;;6152562;23;20016;-86
2023/08/10 15:14:04;;;;;;;5.25;1.40;;;;;;;;;;6153206;23;20862;-86
2023/08/10 15:16:31;;;;;;;7.22;1.20;;;;;;;;;;6154043;23;20029;-86
2023/08/10 15:18:57;;;;;;;5.30;1.70;;;;;;;;;;6116493;23;20026;-86
2023/08/10 15:21:23;;;;;;;6.75;1.40;;;;;;;;;;6118812;23;20014;-84
2023/08/10 15:23:49;;;;;;;4.00;1.30;;;;;;;;;;6125159;23;20016;-83
2023/08/10 15:26:15;;;;;;;4.55;1.10;;;;;;;;;;6151481;23;20445;-89
2023/08/10 15:28:43;;;;;;;3.60;1.42;;;;;;;;;;6125727;23;20006;-86
2023/08/10 15:31:10;;;;;;;5.80;1.52;;;;;;;;;;6153987;23;20425;-87
2023/08/10 15:33:36;;;;;;;8.65;1.77;;;;;;;;;;6153987;23;20016;-87
2023/08/10 15:36:08;;;;;;;5.13;1.70;;;;;;;;;;6127082;23;20045;-88
2023/08/10 15:38:34;;;;;;;4.35;1.35;;;;;;;;;;6127024;23;20005;-84
2023/08/10 15:41:04;;;;;;;3.75;1.40;;;;;;;;;;6127061;23;20034;-86
2023/08/10 15:43:30;;;;;;;3.00;1.30;;;;;;;;;;6127176;23;20090;-84
2023/08/10 15:46:05;;;;;;;5.40;1.88;;;;;;;;;;6153684;23;20006;-88
2023/08/10 15:48:31;;;;;;;4.57;1.02;;;;;;;;;;6127406;23;20016;-86
2023/08/10 15:53:59;;;;;;;5.20;1.20;;;;;;;;;;6153255;23;20025;-86
2023/08/10 15:56:28;;;;;;;5.55;1.63;;;;;;;;;;6126999;23;20009;-87
2023/08/10 15:58:54;;;;;;;5.43;1.55;;;;;;;;;;6127513;23;20022;-86
2023/08/10 16:01:35;;;;;;;8.30;1.40;;;;;;;;;;6127205;23;20013;-88
2023/08/10 16:04:01;;;;;;;4.35;1.17;;;;;;;;;;6091842;23;20022;-88
2023/08/10 16:06:28;;;;;;;2.40;1.05;;;;;;;;;;6067294;23;20018;-83
2023/08/10 16:08:54;;;;;;;4.25;1.30;;;;;;;;;;6067177;23;20062;-84
2023/08/10 16:11:20;;;;;;;5.07;1.15;;;;;;;;;;6066621;23;20019;-86
2023/08/10 16:13:56;;;;;;;4.90;1.48;;;;;;;;;;6067370;23;20010;-88
2023/08/10 16:16:49;;;;;;;;;;;;;;;;;;;;;
2023/08/10 16:32:50;;;;;;;3.85;1.40;;;;;;;;;;6156771;23;20097;-86
2023/08/10 16:38:30;;;;;;;4.30;1.20;;;;;;;;;;6093195;23;20045;-88
2023/08/10 16:40:56;;;;;;;5.88;1.30;;;;;;;;;;6067840;23;20006;-85
2023/08/10 16:43:33;;;;;;;3.05;1.20;;;;;;;;;;6122264;23;20071;-88
2023/08/10 16:45:59;;;;;;;3.10;1.40;;;;;;;;;;6129925;23;20017;-86
2023/08/10 16:48:25;;;;;;;4.85;1.45;;;;;;;;;;6154671;23;20009;-84
2023/08/10 16:50:51;;;;;;;3.28;1.20;;;;;;;;;;6151862;23;20310;-85
2023/08/10 16:53:17;;;;;;;6.63;1.30;;;;;;;;;;6125594;23;20104;-84
2023/08/10 16:55:43;;;;;;;8.13;1.30;;;;;;;;;;6151901;23;20005;-84
2023/08/10 16:58:09;;;;;;;4.30;1.27;;;;;;;;;;6152127;23;20029;-85
2023/08/10 17:00:35;;;;;;;7.32;1.52;;;;;;;;;;6126152;23;20020;-84
2023/08/10 17:03:01;;;;;;;4.60;1.50;;;;;;;;;;6125513;23;20053;-84
2023/08/10 17:05:27;;;;;;;4.00;1.38;;;;;;;;;;6125091;23;20039;-84
2023/08/10 17:07:53;;;;;;;7.20;1.30;;;;;;;;;;6126096;23;20020;-84
2023/08/10 17:10:19;;;;;;;4.10;1.23;;;;;;;;;;6152063;23;20009;-84
2023/08/10 17:12:45;;;;;;;3.75;1.30;;;;;;;;;;6152300;23;20452;-84
2023/08/10 17:15:11;;;;;;;4.55;1.40;;;;;;;;;;6152375;23;20493;-84
2023/08/10 17:17:37;;;;;;;3.00;1.10;;;;;;;;;;6151327;23;20080;-84
2023/08/10 17:20:03;;;;;;;5.22;1.23;;;;;;;;;;6152121;23;20006;-84
2023/08/10 17:22:29;;;;;;;3.03;1.17;;;;;;;;;;6125491;23;20694;-84
2023/08/10 17:24:55;;;;;;;2.67;1.02;;;;;;;;;;6152732;23;20009;-84
2023/08/10 17:27:23;;;;;;;5.65;1.25;;;;;;;;;;6122187;23;20024;-84
2023/08/10 17:29:51;;;;;;;5.63;1.00;;;;;;;;;;6125291;23;20033;-83
2023/08/10 17:32:18;;;;;;;5.15;1.25;;;;;;;;;;6151635;23;20006;-84
2023/08/10 17:34:44;;;;;;;3.22;1.23;;;;;;;;;;6151683;23;20057;-85
2023/08/10 17:37:14;;;;;;;4.28;1.20;;;;;;;;;;6128188;23;20476;-85
2023/08/10 17:39:40;;;;;;;6.78;1.85;;;;;;;;;;6125899;23;20013;-84
2023/08/10 17:42:06;;;;;;;6.65;1.40;;;;;;;;;;6126194;23;20028;-84
2023/08/10 17:44:32;;;;;;;4.25;1.48;;;;;;;;;;6125264;23;20009;-84
2023/08/10 17:47:00;;;;;;;3.08;1.52;;;;;;;;;;6124228;23;20021;-84
2023/08/10 17:49:26;;;;;;;6.53;1.98;;;;;;;;;;6125080;23;20020;-85
2023/08/10 17:51:55;;;;;;;5.47;1.52;;;;;;;;;;6125378;23;20682;-86
2023/08/10 18:00:09;;;;;;;5.55;1.42;;;;;;;;;;6155536;23;20025;-86
2023/08/10 18:02:37;;;;;;;3.65;1.70;;;;;;;;;;6125728;23;20013;-85
2023/08/10 18:05:05;;;;;;;4.40;1.88;;;;;;;;;;6125758;23;20001;-85
2023/08/10 18:07:31;;;;;;;5.38;1.65;;;;;;;;;;6126298;23;20013;-85
2023/08/10 18:09:58;;;;;;;4.75;1.80;;;;;;;;;;6124726;23;20016;-85
2023/08/10 18:12:24;;;;;;;6.38;2.38;;;;;;;;;;6125650;23;20020;-84
2023/08/10 18:14:59;;;;;;;5.72;1.77;;;;;;;;;;6124138;23;20017;-85
2023/08/10 18:17:28;;;;;;;5.18;1.90;;;;;;;;;;6152181;23;20002;-85
2023/08/10 18:19:57;;;;;;;6.43;2.60;;;;;;;;;;6125017;23;20017;-85
2023/08/10 18:22:28;;;;;;;7.88;2.25;;;;;;;;;;6125277;23;20017;-86
2023/08/10 18:25:00;;;;;;;5.90;2.15;;;;;;;;;;6125058;23;20298;-85
2023/08/10 18:27:35;;;;;;;3.90;1.55;;;;;;;;;;6126038;23;20005;-86
2023/08/10 18:30:28;;;;;;;6.43;1.48;;;;;;;;;;6147523;23;20022;-86
2023/08/10 18:33:04;;;;;;;5.10;2.50;;;;;;;;;;6125366;23;20372;-86
2023/08/10 18:35:33;;;;;;;6.90;1.80;;;;;;;;;;6125108;23;20005;-86
2023/08/10 18:38:05;;;;;;;5.32;1.98;;;;;;;;;;6152270;23;20017;-86
2023/08/10 18:40:38;;;;;;;4.70;1.98;;;;;;;;;;6125852;23;20013;-85
2023/08/10 18:43:04;;;;;;;4.78;2.00;;;;;;;;;;6125314;23;20032;-85
2023/08/10 18:45:30;;;;;;;7.60;2.53;;;;;;;;;;6124887;23;20009;-85
2023/08/10 18:47:56;;;;;;;4.55;1.95;;;;;;;;;;6151696;23;20013;-85
2023/08/10 18:50:22;;;;;;;8.23;1.92;;;;;;;;;;6124474;23;20095;-85
2023/08/10 18:52:48;;;;;;;5.18;2.30;;;;;;;;;;6150704;23;20020;-84
2023/08/10 18:55:17;;;;;;;6.35;2.97;;;;;;;;;;6124773;23;20092;-85
2023/08/10 18:57:43;;;;;;;6.65;1.88;;;;;;;;;;6124161;23;20024;-86
2023/08/10 19:00:12;;;;;;;7.07;2.28;;;;;;;;;;6167796;23;20024;-85
2023/08/10 19:02:39;;;;;;;5.65;2.03;;;;;;;;;;6177891;23;20025;-86
2023/08/10 19:05:09;;;;;;;5.32;1.92;;;;;;;;;;6176025;23;20040;-86
2023/08/10 19:07:35;;;;;;;6.13;2.17;;;;;;;;;;6180074;23;20005;-86
2023/08/10 19:10:04;;;;;;;3.38;1.70;;;;;;;;;;6177158;23;20017;-86
2023/08/10 19:12:38;;;;;;;5.20;1.77;;;;;;;;;;6178006;23;20009;-86
2023/08/10 19:15:05;;;;;;;4.40;1.42;;;;;;;;;;6178269;23;20137;-86
2023/08/10 19:17:31;;;;;;;3.95;1.50;;;;;;;;;;6178911;23;20736;-85
2023/08/10 19:20:00;;;;;;;5.00;1.58;;;;;;;;;;6178365;23;20068;-85
2023/08/10 19:22:26;;;;;;;5.68;1.80;;;;;;;;;;6179358;23;20009;-85
2023/08/10 19:24:52;;;;;;;6.85;1.67;;;;;;;;;;6178869;23;20013;-85
2023/08/10 19:27:21;;;;;;;4.72;1.67;;;;;;;;;;6178969;23;20052;-85
2023/08/10 19:29:50;;;;;;;5.47;1.95;;;;;;;;;;6180597;23;20360;-85
2023/08/10 19:32:16;;;;;;;4.63;2.08;;;;;;;;;;6178549;23;20016;-85
2023/08/10 19:34:42;;;;;;;4.03;1.67;;;;;;;;;;6178818;23;20024;-85
2023/08/10 19:37:08;;;;;;;5.30;1.70;;;;;;;;;;6178001;23;20008;-86